createdAt,value
2019-02-12T00:00:28.243Z,20.07
2019-02-12T00:03:31.808Z,20.13
2019-02-12T00:06:35.661Z,19.33
2019-02-12T00:09:39.477Z,20.57
2019-02-12T00:12:43.027Z,17.93
2019-02-12T00:15:46.592Z,18.47
2019-02-12T00:18:50.144Z,17.60
2019-02-12T00:21:53.989Z,17.73
2019-02-12T00:24:57.538Z,16.17
2019-02-12T00:28:01.682Z,15.70
2019-02-12T00:31:05.250Z,17.30
2019-02-12T00:34:09.296Z,16.47
2019-02-12T00:37:12.854Z,16.23
2019-02-12T00:40:16.496Z,15.27
2019-02-12T00:43:20.049Z,14.70
2019-02-12T00:46:23.598Z,14.33
2019-02-12T00:49:27.158Z,13.93
2019-02-12T00:52:31.036Z,13.80
2019-02-12T00:55:34.865Z,14.27
2019-02-12T00:58:38.676Z,13.93
2019-02-12T01:01:42.797Z,13.77
2019-02-12T01:04:46.627Z,14.00
2019-02-12T01:07:50.193Z,13.23
2019-02-12T01:10:53.748Z,12.90
2019-02-12T01:13:57.929Z,12.50
2019-02-12T01:17:01.595Z,12.70
2019-02-12T01:20:06.500Z,12.57
2019-02-12T01:23:10.380Z,13.13
2019-02-12T01:26:14.291Z,13.23
2019-02-12T01:29:18.507Z,12.53
2019-02-12T01:32:22.062Z,12.20
2019-02-12T01:35:25.630Z,11.97
2019-02-12T01:38:29.182Z,11.43
2019-02-12T01:41:33.060Z,10.73
2019-02-12T01:44:36.843Z,11.17
2019-02-12T01:47:40.720Z,11.03
2019-02-12T01:50:44.560Z,10.80
2019-02-12T01:53:48.124Z,10.77
2019-02-12T01:56:52.274Z,10.23
2019-02-12T01:59:56.089Z,10.17
2019-02-12T02:02:59.996Z,10.30
2019-02-12T02:06:03.546Z,9.93
2019-02-12T02:09:07.307Z,9.37
2019-02-12T02:12:11.232Z,9.60
2019-02-12T02:15:15.072Z,9.83
2019-02-12T02:18:18.625Z,9.30
2019-02-12T02:21:22.516Z,8.97
2019-02-12T02:24:26.071Z,8.47
2019-02-12T02:27:29.703Z,8.63
2019-02-12T02:30:33.529Z,8.37
2019-02-12T02:33:37.070Z,8.73
2019-02-12T02:36:40.600Z,7.87
2019-02-12T02:39:44.162Z,7.90
2019-02-12T02:42:47.698Z,8.60
2019-02-12T02:45:51.300Z,7.70
2019-02-12T02:48:55.093Z,7.80
2019-02-12T02:51:58.843Z,7.87
2019-02-12T02:55:02.386Z,7.80
2019-02-12T02:58:06.482Z,7.93
2019-02-12T03:01:10.284Z,7.17
2019-02-12T03:04:14.099Z,7.60
2019-02-12T03:07:17.939Z,7.00
2019-02-12T03:10:21.481Z,7.10
2019-02-12T03:13:25.018Z,6.60
2019-02-12T03:16:28.867Z,6.60
2019-02-12T03:19:32.970Z,5.83
2019-02-12T03:22:36.525Z,6.00
2019-02-12T03:25:40.093Z,6.53
2019-02-12T03:28:43.888Z,6.40
2019-02-12T03:31:47.697Z,6.03
2019-02-12T03:34:51.492Z,5.80
2019-02-12T03:37:55.320Z,6.03
2019-02-12T03:40:59.291Z,5.80
2019-02-12T03:44:03.311Z,6.10
2019-02-12T03:47:06.834Z,5.57
2019-02-12T03:50:10.735Z,5.30
2019-02-12T03:53:14.581Z,5.27
2019-02-12T03:56:18.114Z,5.40
2019-02-12T03:59:22.090Z,5.77
2019-02-12T04:02:25.887Z,5.63
2019-02-12T04:05:29.503Z,5.10
2019-02-12T04:08:33.883Z,5.47
2019-02-12T04:11:37.693Z,5.10
2019-02-12T04:14:41.263Z,4.77
2019-02-12T04:17:45.448Z,5.10
2019-02-12T04:20:49.328Z,4.80
2019-02-12T04:23:52.872Z,4.60
2019-02-12T04:26:56.402Z,4.70
2019-02-12T04:30:00.550Z,4.37
2019-02-12T04:33:04.672Z,4.80
2019-02-12T04:36:08.211Z,4.03
2019-02-12T04:39:11.745Z,4.13
2019-02-12T04:42:15.584Z,4.30
2019-02-12T04:45:19.113Z,3.93
2019-02-12T04:48:22.933Z,4.23
2019-02-12T04:51:27.137Z,3.90
2019-02-12T04:54:31.266Z,3.77
2019-02-12T04:57:35.135Z,3.77
2019-02-12T05:00:39.202Z,3.57
2019-02-12T05:03:42.728Z,3.77
2019-02-12T05:06:46.768Z,3.90
2019-02-12T05:09:52.706Z,4.10
2019-02-12T05:12:56.585Z,21.33
2019-02-12T05:16:00.491Z,32.80
2019-02-12T05:19:04.036Z,29.43
2019-02-12T05:22:07.629Z,29.03
2019-02-12T05:25:11.243Z,15.47
2019-02-12T05:28:15.064Z,35.57
2019-02-12T05:31:18.912Z,34.23
2019-02-12T05:34:23.143Z,179.10
2019-02-12T05:37:27.249Z,36.97
2019-02-12T05:40:31.140Z,95.83
2019-02-12T05:43:34.981Z,93.30
2019-02-12T05:46:38.534Z,70.53
2019-02-12T05:49:42.412Z,51.10
2019-02-12T05:52:53.864Z,45.93
2019-02-12T05:55:51.901Z,42.80
2019-02-12T05:58:55.428Z,40.87
2019-02-12T06:01:59.224Z,40.73
2019-02-12T06:05:03.031Z,39.17
2019-02-12T06:08:06.797Z,35.10
2019-02-12T06:11:10.515Z,36.90
2019-02-12T06:14:14.063Z,34.73
2019-02-12T06:17:17.608Z,35.23
2019-02-12T06:20:21.148Z,34.13
2019-02-12T06:23:24.712Z,33.57
2019-02-12T06:26:28.270Z,31.53
2019-02-12T06:29:32.068Z,31.53
2019-02-12T06:32:35.611Z,30.83
2019-02-12T06:35:39.720Z,29.83
2019-02-12T06:38:43.273Z,29.70
2019-02-12T06:41:47.136Z,28.87
2019-02-12T06:44:50.764Z,27.67
2019-02-12T06:47:54.299Z,27.77
2019-02-12T06:50:58.163Z,26.00
2019-02-12T06:54:01.973Z,26.87
2019-02-12T06:57:05.604Z,24.90
2019-02-12T07:00:09.747Z,25.30
2019-02-12T07:03:15.734Z,23.43
2019-02-12T07:07:02.713Z,23.03
2019-02-12T07:10:11.431Z,22.00
2019-02-12T07:13:37.830Z,22.40
2019-02-12T07:16:53.763Z,22.40
2019-02-12T07:20:23.408Z,22.87
2019-02-12T07:24:22.133Z,21.57
2019-02-12T07:27:57.819Z,20.87
2019-02-12T07:31:35.259Z,20.07
2019-02-12T07:35:23.913Z,18.63
2019-02-12T07:38:50.925Z,19.97
2019-02-12T07:42:33.244Z,18.83
2019-02-12T07:46:18.332Z,18.00
2019-02-12T07:49:50.496Z,18.10
2019-02-12T07:53:06.079Z,17.70
2019-02-12T07:56:23.394Z,16.80
2019-02-12T07:59:55.383Z,18.27
2019-02-12T08:03:31.259Z,17.23
2019-02-12T08:06:56.526Z,16.80
2019-02-12T08:10:39.748Z,15.97
2019-02-12T08:14:26.504Z,15.97
2019-02-12T08:18:20.292Z,15.23
2019-02-12T08:21:36.159Z,15.30
2019-02-12T08:25:19.720Z,13.67
2019-02-12T08:29:03.557Z,14.20
2019-02-12T08:32:25.862Z,14.60
2019-02-12T08:36:02.688Z,13.63
2019-02-12T08:39:31.588Z,13.63
2019-02-12T08:42:49.888Z,13.23
2019-02-12T08:46:22.653Z,13.10
2019-02-12T08:49:54.132Z,16.07
2019-02-12T08:53:33.616Z,15.33
2019-02-12T08:57:06.666Z,14.57
2019-02-12T09:00:16.871Z,14.13
2019-02-12T09:03:56.621Z,13.47
2019-02-12T09:07:27.890Z,13.43
2019-02-12T09:10:57.831Z,12.83
2019-02-12T09:14:29.762Z,12.20
2019-02-12T09:18:05.423Z,11.60
2019-02-12T09:21:23.577Z,11.03
2019-02-12T09:25:00.476Z,10.57
2019-02-12T09:28:22.599Z,10.50
2019-02-12T09:32:06.807Z,10.47
2019-02-12T09:35:40.678Z,9.70
2019-02-12T09:38:54.844Z,9.87
2019-02-12T09:42:42.783Z,9.70
2019-02-12T09:46:38.085Z,9.00
2019-02-12T09:50:23.254Z,8.70
2019-02-12T09:54:16.540Z,8.93
2019-02-12T09:57:28.283Z,8.80
2019-02-12T10:00:41.750Z,9.00
2019-02-12T10:04:09.946Z,8.03
2019-02-12T10:07:39.610Z,8.60
2019-02-12T10:11:11.941Z,7.50
2019-02-12T10:14:39.275Z,7.60
2019-02-12T10:18:23.133Z,7.40
2019-02-12T10:21:55.322Z,7.57
2019-02-12T10:25:06.398Z,7.53
2019-02-12T10:28:53.510Z,7.63
2019-02-12T10:31:56.354Z,6.73
2019-02-12T10:34:59.879Z,6.47
2019-02-12T10:38:03.419Z,7.13
2019-02-12T10:41:06.961Z,7.03
2019-02-12T10:44:10.813Z,7.00
2019-02-12T10:47:14.366Z,6.73
2019-02-12T10:50:17.901Z,6.40
2019-02-12T10:53:22.115Z,6.37
2019-02-12T10:56:25.993Z,6.90
2019-02-12T10:59:29.763Z,6.17
2019-02-12T11:02:33.300Z,6.40
2019-02-12T11:05:36.833Z,6.23
2019-02-12T11:08:40.639Z,6.03
2019-02-12T11:11:44.167Z,6.40
2019-02-12T11:14:47.964Z,5.70
2019-02-12T11:17:51.835Z,5.67
2019-02-12T11:20:55.364Z,5.70
2019-02-12T11:23:59.016Z,5.87
2019-02-12T11:27:02.534Z,5.33
2019-02-12T11:30:07.245Z,6.10
2019-02-12T11:33:11.110Z,5.47
2019-02-12T11:36:14.646Z,5.27
2019-02-12T11:39:18.191Z,5.00
2019-02-12T11:42:21.737Z,5.10
2019-02-12T11:45:25.348Z,5.07
2019-02-12T11:48:28.887Z,4.97
2019-02-12T11:51:32.442Z,5.60
2019-02-12T11:54:43.417Z,5.00
2019-02-12T11:57:41.246Z,5.43
2019-02-12T12:01:10.581Z,4.43
2019-02-12T12:04:14.134Z,4.67
2019-02-12T12:07:17.671Z,5.50
2019-02-12T12:10:21.212Z,4.90
2019-02-12T12:13:25.744Z,4.43
2019-02-12T12:16:29.365Z,4.57
2019-02-12T12:19:32.958Z,4.43
2019-02-12T12:22:36.502Z,5.00
2019-02-12T12:25:40.030Z,4.27
2019-02-12T12:28:44.114Z,3.90
2019-02-12T12:31:47.668Z,4.30
2019-02-12T12:34:51.210Z,4.40
2019-02-12T12:37:54.750Z,4.90
2019-02-12T12:40:58.291Z,4.67
2019-02-12T12:44:01.830Z,4.23
2019-02-12T12:47:05.670Z,3.93
2019-02-12T12:50:10.011Z,4.50
2019-02-12T12:53:13.624Z,4.07
2019-02-12T12:56:17.829Z,3.90
2019-02-12T12:59:21.380Z,4.00
2019-02-12T13:02:24.931Z,3.70
2019-02-12T13:05:29.038Z,4.43
2019-02-12T13:08:32.566Z,4.33
2019-02-12T13:11:36.104Z,3.50
2019-02-12T13:14:39.958Z,3.60
2019-02-12T13:17:43.965Z,3.57
2019-02-12T13:20:47.502Z,3.90
2019-02-12T13:23:51.390Z,4.03
2019-02-12T13:26:55.326Z,3.23
2019-02-12T13:30:00.175Z,3.60
2019-02-12T13:33:04.138Z,3.63
2019-02-12T13:36:07.914Z,3.43
2019-02-12T13:39:11.444Z,3.30
2019-02-12T13:42:15.000Z,3.10
2019-02-12T13:45:18.533Z,3.37
2019-02-12T13:48:22.322Z,3.20
2019-02-12T13:51:25.857Z,3.40
2019-02-12T13:54:29.386Z,3.37
2019-02-12T13:57:32.914Z,3.00
2019-02-12T14:00:36.823Z,3.40
2019-02-12T14:03:40.678Z,3.17
2019-02-12T14:06:44.219Z,3.23
2019-02-12T14:09:48.018Z,3.23
2019-02-12T14:12:51.899Z,3.20
2019-02-12T14:15:55.427Z,3.17
2019-02-12T14:18:59.028Z,2.70
2019-02-12T14:22:02.967Z,2.80
2019-02-12T14:25:06.876Z,3.00
2019-02-12T14:28:10.658Z,2.77
2019-02-12T14:31:14.481Z,2.87
2019-02-12T14:34:17.990Z,3.20
2019-02-12T14:37:22.049Z,2.80
2019-02-12T14:40:25.588Z,2.30
2019-02-12T14:43:29.473Z,2.53
2019-02-12T14:46:33.011Z,2.73
2019-02-12T14:49:36.801Z,2.77
2019-02-12T14:52:40.357Z,2.20
2019-02-12T14:55:44.187Z,2.43
2019-02-12T14:58:48.047Z,2.80
2019-02-12T15:01:51.833Z,2.63
2019-02-12T15:05:00.423Z,2.60
2019-02-12T15:08:00.642Z,2.90
2019-02-12T15:11:04.175Z,2.40
2019-02-12T15:14:07.770Z,2.30
2019-02-12T15:17:11.329Z,2.57
2019-02-12T15:20:15.272Z,2.23
2019-02-12T15:23:18.824Z,2.30
2019-02-12T15:26:22.700Z,2.73
2019-02-12T15:29:26.527Z,2.50
2019-02-12T15:32:30.068Z,2.30
2019-02-12T15:35:34.041Z,2.30
2019-02-12T15:38:37.581Z,2.17
2019-02-12T15:41:41.713Z,2.50
2019-02-12T15:44:45.575Z,2.30
2019-02-12T15:47:49.282Z,2.20
2019-02-12T15:50:52.807Z,2.20
2019-02-12T15:53:56.656Z,2.50
2019-02-12T15:57:01.392Z,2.37
2019-02-12T16:00:08.963Z,2.07
2019-02-12T16:03:12.830Z,2.40
2019-02-12T16:06:17.679Z,2.20
2019-02-12T16:09:22.967Z,2.03
2019-02-12T16:12:28.438Z,2.20
2019-02-12T16:15:32.470Z,1.93
2019-02-12T16:18:36.006Z,1.97
2019-02-12T16:21:39.776Z,2.00
2019-02-12T16:24:43.873Z,2.60
2019-02-12T16:27:47.715Z,2.30
2019-02-12T16:30:51.250Z,2.20
2019-02-12T16:33:54.805Z,1.90
2019-02-12T16:36:58.337Z,2.43
2019-02-12T16:40:02.187Z,2.40
2019-02-12T16:43:06.134Z,2.50
2019-02-12T16:46:13.457Z,2.63
2019-02-12T16:49:16.989Z,2.43
2019-02-12T16:52:21.280Z,4.23
2019-02-12T16:55:24.835Z,13.60
2019-02-12T16:58:28.382Z,41.03
2019-02-12T17:01:32.167Z,8.60
2019-02-12T17:04:35.708Z,24.10
2019-02-12T17:07:39.270Z,24.73
2019-02-12T17:10:43.092Z,24.73
2019-02-12T17:13:46.719Z,21.90
2019-02-12T17:16:50.691Z,19.47
2019-02-12T17:19:54.609Z,17.33
2019-02-12T17:22:58.151Z,15.33
2019-02-12T17:26:02.023Z,15.40
2019-02-12T17:29:05.912Z,14.40
2019-02-12T17:32:09.456Z,14.13
2019-02-12T17:35:13.289Z,13.33
2019-02-12T17:38:17.168Z,13.30
2019-02-12T17:41:21.546Z,11.97
2019-02-12T17:44:25.401Z,12.10
2019-02-12T17:47:29.211Z,11.57
2019-02-12T17:50:32.756Z,11.57
2019-02-12T17:53:38.804Z,11.30
2019-02-12T17:56:42.351Z,10.73
2019-02-12T17:59:46.161Z,10.73
2019-02-12T18:02:49.997Z,10.83
2019-02-12T18:05:53.531Z,10.37
2019-02-12T18:08:57.082Z,9.57
2019-02-12T18:12:00.899Z,9.10
2019-02-12T18:15:05.028Z,9.50
2019-02-12T18:18:08.562Z,9.70
2019-02-12T18:21:12.109Z,9.60
2019-02-12T18:24:15.663Z,9.00
2019-02-12T18:27:19.204Z,7.80
2019-02-12T18:30:22.755Z,5.17
2019-02-12T18:33:26.655Z,20.30
2019-02-12T18:36:30.198Z,8.97
2019-02-12T18:39:33.766Z,36.33
2019-02-12T18:42:37.641Z,36.67
2019-02-12T18:45:41.778Z,31.97
2019-02-12T18:48:45.849Z,28.80
2019-02-12T18:51:49.624Z,27.37
2019-02-12T18:54:53.433Z,25.03
2019-02-12T18:57:57.250Z,24.20
2019-02-12T19:01:01.102Z,23.67
2019-02-12T19:04:04.940Z,22.80
2019-02-12T19:07:08.491Z,22.53
2019-02-12T19:10:13.043Z,22.13
2019-02-12T19:13:16.940Z,21.47
2019-02-12T19:16:20.576Z,21.37
2019-02-12T19:19:24.404Z,27.47
2019-02-12T19:22:27.966Z,33.70
2019-02-12T19:25:31.512Z,33.33
2019-02-12T19:28:35.058Z,33.33
2019-02-12T19:31:38.616Z,32.87
2019-02-12T19:34:42.417Z,32.53
2019-02-12T19:37:46.302Z,32.87
2019-02-12T19:40:49.858Z,31.63
2019-02-12T19:43:53.466Z,16.17
2019-02-12T19:46:57.071Z,19.97
2019-02-12T19:50:00.845Z,19.33
2019-02-12T19:53:04.663Z,21.80
2019-02-12T19:56:08.222Z,58.47
2019-02-12T19:59:12.343Z,57.07
2019-02-12T20:02:15.910Z,55.20
2019-02-12T20:05:19.752Z,54.70
2019-02-12T20:08:23.292Z,54.17
2019-02-12T20:11:27.171Z,53.00
2019-02-12T20:14:31.165Z,51.43
2019-02-12T20:17:35.023Z,51.20
2019-02-12T20:20:38.560Z,49.23
2019-02-12T20:23:42.223Z,50.37
2019-02-12T20:26:45.795Z,49.80
2019-02-12T20:29:49.607Z,47.17
2019-02-12T20:32:53.154Z,28.93
2019-02-12T20:35:56.957Z,27.70
2019-02-12T20:39:00.791Z,29.90
2019-02-12T20:42:04.334Z,29.53
2019-02-12T20:45:10.329Z,30.13
2019-02-12T20:48:13.872Z,27.57
2019-02-12T20:51:17.543Z,27.67
2019-02-12T20:54:21.083Z,28.93
2019-02-12T20:57:24.637Z,27.67
2019-02-12T21:00:28.437Z,27.23
2019-02-12T21:03:31.979Z,26.40
2019-02-12T21:06:35.520Z,26.07
2019-02-12T21:09:39.098Z,26.27
2019-02-12T21:12:42.623Z,65.67
2019-02-12T21:15:46.180Z,39.20
2019-02-12T21:18:49.734Z,68.63
2019-02-12T21:21:53.326Z,77.50
2019-02-12T21:24:56.874Z,73.27
2019-02-12T21:28:00.707Z,72.37
2019-02-12T21:31:04.267Z,70.83
2019-02-12T21:34:08.315Z,68.00
2019-02-12T21:37:11.863Z,65.73
2019-02-12T21:40:18.176Z,66.20
2019-02-12T21:43:22.066Z,65.83
2019-02-12T21:46:25.602Z,64.20
2019-02-12T21:49:29.416Z,57.10
2019-02-12T21:52:33.276Z,103.60
2019-02-12T21:55:37.123Z,76.67
2019-02-12T21:58:40.959Z,70.27
2019-02-12T22:01:44.817Z,63.73
2019-02-12T22:04:48.640Z,60.90
2019-02-12T22:07:52.456Z,57.97
2019-02-12T22:10:56.000Z,54.70
2019-02-12T22:13:59.549Z,50.50
2019-02-12T22:17:03.108Z,51.97
2019-02-12T22:20:07.659Z,49.17
2019-02-12T22:23:11.499Z,46.23
2019-02-12T22:26:15.045Z,45.43
2019-02-12T22:29:18.878Z,43.10
2019-02-12T22:32:22.436Z,42.60
2019-02-12T22:35:26.306Z,40.10
2019-02-12T22:38:30.136Z,39.33
2019-02-12T22:41:33.679Z,39.93
2019-02-12T22:44:37.229Z,37.87
2019-02-12T22:47:40.779Z,35.63
2019-02-12T22:50:44.335Z,35.17
2019-02-12T22:53:48.169Z,35.90
2019-02-12T22:56:52.380Z,33.87
2019-02-12T22:59:55.923Z,32.87
2019-02-12T23:02:59.792Z,31.47
2019-02-12T23:06:03.452Z,30.83
2019-02-12T23:09:14.564Z,30.30
2019-02-12T23:12:18.404Z,27.63
2019-02-12T23:15:22.267Z,28.03
2019-02-12T23:18:26.432Z,26.30
2019-02-12T23:21:29.969Z,23.83
2019-02-12T23:24:33.852Z,24.00
2019-02-12T23:27:37.717Z,23.63
2019-02-12T23:30:41.294Z,23.43
2019-02-12T23:33:44.847Z,22.53
2019-02-12T23:36:48.456Z,22.03
2019-02-12T23:39:52.073Z,22.03
2019-02-12T23:42:55.615Z,21.43
2019-02-12T23:45:59.785Z,20.00
2019-02-12T23:49:03.696Z,19.60
2019-02-12T23:52:07.571Z,18.73
2019-02-12T23:55:11.375Z,19.47
2019-02-12T23:58:14.912Z,19.23
